sensor_id;sensor_type;location;lat;lon;timestamp;P1;durP1;ratioP1;P2;durP2;ratioP2
79493;SDS011;68951;53.130;18.104;2024-03-02T00:00:20;43.40;;;21.20;;
79493;SDS011;68951;53.130;18.104;2024-03-02T00:03:08;38.30;;;18.40;;
79493;SDS011;68951;53.130;18.104;2024-03-02T00:05:40;39.00;;;19.90;;
79493;SDS011;68951;53.130;18.104;2024-03-02T00:08:07;40.20;;;20.70;;
79493;SDS011;68951;53.130;18.104;2024-03-02T00:10:38;43.40;;;21.50;;
79493;SDS011;68951;53.130;18.104;2024-03-02T00:13:07;43.10;;;21.70;;
79493;SDS011;68951;53.130;18.104;2024-03-02T00:18:25;43.50;;;21.20;;
79493;SDS011;68951;53.130;18.104;2024-03-02T00:20:53;43.50;;;22.20;;
79493;SDS011;68951;53.130;18.104;2024-03-02T00:23:23;42.30;;;20.20;;
79493;SDS011;68951;53.130;18.104;2024-03-02T00:25:53;44.30;;;21.20;;
79493;SDS011;68951;53.130;18.104;2024-03-02T00:28:35;46.00;;;22.50;;
79493;SDS011;68951;53.130;18.104;2024-03-02T00:33:33;44.60;;;21.10;;
79493;SDS011;68951;53.130;18.104;2024-03-02T00:36:02;43.90;;;19.70;;
79493;SDS011;68951;53.130;18.104;2024-03-02T00:38:34;41.60;;;20.90;;
79493;SDS011;68951;53.130;18.104;2024-03-02T00:41:05;42.60;;;22.50;;
79493;SDS011;68951;53.130;18.104;2024-03-02T00:46:18;43.70;;;19.90;;
79493;SDS011;68951;53.130;18.104;2024-03-02T00:48:55;41.80;;;21.20;;
79493;SDS011;68951;53.130;18.104;2024-03-02T00:51:24;40.00;;;19.80;;
79493;SDS011;68951;53.130;18.104;2024-03-02T00:53:54;38.50;;;19.00;;
79493;SDS011;68951;53.130;18.104;2024-03-02T00:56:23;44.60;;;21.80;;
79493;SDS011;68951;53.130;18.104;2024-03-02T00:58:51;40.70;;;19.20;;
79493;SDS011;68951;53.130;18.104;2024-03-02T01:01:19;38.50;;;19.30;;
79493;SDS011;68951;53.130;18.104;2024-03-02T01:03:46;43.50;;;21.30;;
79493;SDS011;68951;53.130;18.104;2024-03-02T01:06:13;39.20;;;19.20;;
79493;SDS011;68951;53.130;18.104;2024-03-02T01:08:39;40.50;;;20.60;;
79493;SDS011;68951;53.130;18.104;2024-03-02T01:11:06;40.10;;;18.70;;
79493;SDS011;68951;53.130;18.104;2024-03-02T01:13:33;42.00;;;20.70;;
79493;SDS011;68951;53.130;18.104;2024-03-02T01:16:01;38.90;;;20.00;;
79493;SDS011;68951;53.130;18.104;2024-03-02T01:18:28;43.40;;;21.50;;
79493;SDS011;68951;53.130;18.104;2024-03-02T01:20:55;40.00;;;20.10;;
79493;SDS011;68951;53.130;18.104;2024-03-02T01:23:23;39.10;;;19.20;;
79493;SDS011;68951;53.130;18.104;2024-03-02T01:25:51;39.80;;;20.50;;
79493;SDS011;68951;53.130;18.104;2024-03-02T01:28:18;36.70;;;18.10;;
79493;SDS011;68951;53.130;18.104;2024-03-02T01:30:47;41.30;;;20.70;;
79493;SDS011;68951;53.130;18.104;2024-03-02T01:33:15;39.60;;;19.90;;
79493;SDS011;68951;53.130;18.104;2024-03-02T01:35:45;39.30;;;19.70;;
79493;SDS011;68951;53.130;18.104;2024-03-02T01:38:12;40.30;;;20.00;;
79493;SDS011;68951;53.130;18.104;2024-03-02T01:40:39;37.20;;;19.40;;
79493;SDS011;68951;53.130;18.104;2024-03-02T01:43:06;32.00;;;16.50;;
79493;SDS011;68951;53.130;18.104;2024-03-02T01:45:34;35.40;;;18.90;;
79493;SDS011;68951;53.130;18.104;2024-03-02T01:48:03;38.10;;;19.20;;
79493;SDS011;68951;53.130;18.104;2024-03-02T01:50:32;36.50;;;18.80;;
79493;SDS011;68951;53.130;18.104;2024-03-02T01:53:00;38.20;;;19.20;;
79493;SDS011;68951;53.130;18.104;2024-03-02T01:55:29;36.90;;;18.10;;
79493;SDS011;68951;53.130;18.104;2024-03-02T01:57:57;34.00;;;18.30;;
79493;SDS011;68951;53.130;18.104;2024-03-02T02:00:24;36.90;;;19.10;;
79493;SDS011;68951;53.130;18.104;2024-03-02T02:02:52;36.90;;;19.70;;
79493;SDS011;68951;53.130;18.104;2024-03-02T02:05:20;38.50;;;20.90;;
79493;SDS011;68951;53.130;18.104;2024-03-02T02:07:47;38.10;;;19.10;;
79493;SDS011;68951;53.130;18.104;2024-03-02T02:10:14;35.70;;;18.60;;
79493;SDS011;68951;53.130;18.104;2024-03-02T02:12:41;37.90;;;18.90;;
79493;SDS011;68951;53.130;18.104;2024-03-02T02:15:28;34.70;;;18.00;;
79493;SDS011;68951;53.130;18.104;2024-03-02T02:17:56;37.90;;;18.80;;
79493;SDS011;68951;53.130;18.104;2024-03-02T02:20:25;35.10;;;18.50;;
79493;SDS011;68951;53.130;18.104;2024-03-02T02:23:03;34.20;;;17.10;;
79493;SDS011;68951;53.130;18.104;2024-03-02T02:25:31;33.50;;;16.80;;
79493;SDS011;68951;53.130;18.104;2024-03-02T02:27:58;34.80;;;18.00;;
79493;SDS011;68951;53.130;18.104;2024-03-02T02:30:29;36.40;;;17.40;;
79493;SDS011;68951;53.130;18.104;2024-03-02T02:32:57;31.60;;;17.30;;
79493;SDS011;68951;53.130;18.104;2024-03-02T02:35:25;37.20;;;17.80;;
79493;SDS011;68951;53.130;18.104;2024-03-02T02:37:54;30.70;;;15.30;;
79493;SDS011;68951;53.130;18.104;2024-03-02T02:40:21;31.20;;;16.10;;
79493;SDS011;68951;53.130;18.104;2024-03-02T02:42:49;29.40;;;15.00;;
79493;SDS011;68951;53.130;18.104;2024-03-02T02:45:16;32.00;;;15.90;;
79493;SDS011;68951;53.130;18.104;2024-03-02T02:47:44;32.10;;;16.90;;
79493;SDS011;68951;53.130;18.104;2024-03-02T02:50:12;31.40;;;15.60;;
79493;SDS011;68951;53.130;18.104;2024-03-02T02:52:40;33.40;;;17.40;;
79493;SDS011;68951;53.130;18.104;2024-03-02T02:55:12;31.00;;;15.30;;
79493;SDS011;68951;53.130;18.104;2024-03-02T02:57:42;33.00;;;16.90;;
79493;SDS011;68951;53.130;18.104;2024-03-02T03:00:14;33.90;;;17.70;;
79493;SDS011;68951;53.130;18.104;2024-03-02T03:02:43;28.20;;;14.50;;
79493;SDS011;68951;53.130;18.104;2024-03-02T03:05:11;29.50;;;15.10;;
79493;SDS011;68951;53.130;18.104;2024-03-02T03:07:40;30.50;;;15.30;;
79493;SDS011;68951;53.130;18.104;2024-03-02T03:10:08;27.10;;;13.70;;
79493;SDS011;68951;53.130;18.104;2024-03-02T03:12:35;29.40;;;15.00;;
79493;SDS011;68951;53.130;18.104;2024-03-02T03:15:03;25.80;;;13.60;;
79493;SDS011;68951;53.130;18.104;2024-03-02T03:17:34;28.80;;;15.10;;
79493;SDS011;68951;53.130;18.104;2024-03-02T03:20:02;26.20;;;13.00;;
79493;SDS011;68951;53.130;18.104;2024-03-02T03:22:30;26.90;;;14.30;;
79493;SDS011;68951;53.130;18.104;2024-03-02T03:25:02;25.90;;;14.00;;
79493;SDS011;68951;53.130;18.104;2024-03-02T03:27:30;28.90;;;14.60;;
79493;SDS011;68951;53.130;18.104;2024-03-02T03:29:56;23.80;;;12.90;;
79493;SDS011;68951;53.130;18.104;2024-03-02T03:32:23;27.20;;;13.90;;
79493;SDS011;68951;53.130;18.104;2024-03-02T03:34:51;26.40;;;13.30;;
79493;SDS011;68951;53.130;18.104;2024-03-02T03:37:17;26.40;;;12.90;;
79493;SDS011;68951;53.130;18.104;2024-03-02T03:39:45;22.90;;;11.40;;
79493;SDS011;68951;53.130;18.104;2024-03-02T03:42:11;24.50;;;12.40;;
79493;SDS011;68951;53.130;18.104;2024-03-02T03:44:39;23.70;;;12.10;;
79493;SDS011;68951;53.130;18.104;2024-03-02T03:47:08;26.20;;;12.60;;
79493;SDS011;68951;53.130;18.104;2024-03-02T03:49:35;25.90;;;13.40;;
79493;SDS011;68951;53.130;18.104;2024-03-02T03:52:02;21.00;;;11.90;;
79493;SDS011;68951;53.130;18.104;2024-03-02T03:54:28;20.80;;;11.10;;
79493;SDS011;68951;53.130;18.104;2024-03-02T03:56:55;21.10;;;11.40;;
79493;SDS011;68951;53.130;18.104;2024-03-02T03:59:22;25.60;;;13.00;;
79493;SDS011;68951;53.130;18.104;2024-03-02T04:01:50;22.80;;;12.60;;
79493;SDS011;68951;53.130;18.104;2024-03-02T04:04:17;21.40;;;10.60;;
79493;SDS011;68951;53.130;18.104;2024-03-02T04:06:43;21.00;;;11.00;;
79493;SDS011;68951;53.130;18.104;2024-03-02T04:09:10;23.00;;;12.10;;
79493;SDS011;68951;53.130;18.104;2024-03-02T04:11:37;24.30;;;12.40;;
79493;SDS011;68951;53.130;18.104;2024-03-02T04:14:04;20.60;;;11.10;;
79493;SDS011;68951;53.130;18.104;2024-03-02T04:16:32;21.20;;;11.20;;
79493;SDS011;68951;53.130;18.104;2024-03-02T04:18:59;20.60;;;10.80;;
79493;SDS011;68951;53.130;18.104;2024-03-02T04:21:26;23.30;;;11.70;;
79493;SDS011;68951;53.130;18.104;2024-03-02T04:23:53;21.20;;;11.60;;
79493;SDS011;68951;53.130;18.104;2024-03-02T04:26:24;25.20;;;12.50;;
79493;SDS011;68951;53.130;18.104;2024-03-02T04:28:54;22.70;;;11.60;;
79493;SDS011;68951;53.130;18.104;2024-03-02T04:31:21;23.30;;;12.10;;
79493;SDS011;68951;53.130;18.104;2024-03-02T04:33:48;19.20;;;10.40;;
79493;SDS011;68951;53.130;18.104;2024-03-02T04:36:15;22.80;;;12.80;;
79493;SDS011;68951;53.130;18.104;2024-03-02T04:38:42;22.10;;;13.30;;
79493;SDS011;68951;53.130;18.104;2024-03-02T04:41:09;18.90;;;10.30;;
79493;SDS011;68951;53.130;18.104;2024-03-02T04:43:35;20.70;;;12.00;;
79493;SDS011;68951;53.130;18.104;2024-03-02T04:46:02;21.00;;;11.70;;
79493;SDS011;68951;53.130;18.104;2024-03-02T04:48:29;21.80;;;11.60;;
79493;SDS011;68951;53.130;18.104;2024-03-02T04:50:56;22.90;;;11.50;;
79493;SDS011;68951;53.130;18.104;2024-03-02T04:53:23;20.50;;;11.20;;
79493;SDS011;68951;53.130;18.104;2024-03-02T04:55:50;24.10;;;12.80;;
79493;SDS011;68951;53.130;18.104;2024-03-02T04:58:35;21.30;;;11.50;;
79493;SDS011;68951;53.130;18.104;2024-03-02T05:01:02;20.90;;;11.80;;
79493;SDS011;68951;53.130;18.104;2024-03-02T05:03:28;21.50;;;11.60;;
79493;SDS011;68951;53.130;18.104;2024-03-02T05:05:55;22.00;;;13.10;;
79493;SDS011;68951;53.130;18.104;2024-03-02T05:08:22;20.50;;;10.70;;
79493;SDS011;68951;53.130;18.104;2024-03-02T05:10:49;23.80;;;12.50;;
79493;SDS011;68951;53.130;18.104;2024-03-02T05:13:16;21.10;;;12.30;;
79493;SDS011;68951;53.130;18.104;2024-03-02T05:15:44;25.20;;;13.30;;
79493;SDS011;68951;53.130;18.104;2024-03-02T05:18:10;19.50;;;11.90;;
79493;SDS011;68951;53.130;18.104;2024-03-02T05:20:37;20.30;;;12.10;;
79493;SDS011;68951;53.130;18.104;2024-03-02T05:23:04;22.30;;;11.90;;
79493;SDS011;68951;53.130;18.104;2024-03-02T05:25:31;22.60;;;13.30;;
79493;SDS011;68951;53.130;18.104;2024-03-02T05:27:59;23.60;;;13.20;;
79493;SDS011;68951;53.130;18.104;2024-03-02T05:30:25;24.40;;;12.70;;
79493;SDS011;68951;53.130;18.104;2024-03-02T05:32:52;19.60;;;11.40;;
79493;SDS011;68951;53.130;18.104;2024-03-02T05:35:19;22.30;;;12.50;;
79493;SDS011;68951;53.130;18.104;2024-03-02T05:37:46;25.40;;;14.10;;
79493;SDS011;68951;53.130;18.104;2024-03-02T05:40:13;20.80;;;12.00;;
79493;SDS011;68951;53.130;18.104;2024-03-02T05:42:40;21.80;;;12.00;;
79493;SDS011;68951;53.130;18.104;2024-03-02T05:45:08;21.10;;;12.10;;
79493;SDS011;68951;53.130;18.104;2024-03-02T05:47:34;21.20;;;11.50;;
79493;SDS011;68951;53.130;18.104;2024-03-02T05:50:02;21.80;;;12.30;;
79493;SDS011;68951;53.130;18.104;2024-03-02T05:52:30;21.20;;;12.20;;
79493;SDS011;68951;53.130;18.104;2024-03-02T05:54:57;24.00;;;12.80;;
79493;SDS011;68951;53.130;18.104;2024-03-02T05:57:23;22.10;;;12.40;;
79493;SDS011;68951;53.130;18.104;2024-03-02T06:00:09;21.80;;;12.70;;
79493;SDS011;68951;53.130;18.104;2024-03-02T06:02:40;21.00;;;11.80;;
79493;SDS011;68951;53.130;18.104;2024-03-02T06:05:09;23.20;;;13.40;;
79493;SDS011;68951;53.130;18.104;2024-03-02T06:07:36;25.50;;;13.90;;
79493;SDS011;68951;53.130;18.104;2024-03-02T06:10:03;23.20;;;13.20;;
79493;SDS011;68951;53.130;18.104;2024-03-02T06:12:31;21.80;;;12.70;;
79493;SDS011;68951;53.130;18.104;2024-03-02T06:14:58;20.90;;;11.80;;
79493;SDS011;68951;53.130;18.104;2024-03-02T06:17:25;23.40;;;13.20;;
79493;SDS011;68951;53.130;18.104;2024-03-02T06:19:52;21.30;;;12.20;;
79493;SDS011;68951;53.130;18.104;2024-03-02T06:22:19;22.40;;;12.60;;
79493;SDS011;68951;53.130;18.104;2024-03-02T06:24:46;19.80;;;11.60;;
79493;SDS011;68951;53.130;18.104;2024-03-02T06:27:12;24.50;;;12.70;;
79493;SDS011;68951;53.130;18.104;2024-03-02T06:29:39;21.90;;;12.60;;
79493;SDS011;68951;53.130;18.104;2024-03-02T06:32:06;23.50;;;13.00;;
79493;SDS011;68951;53.130;18.104;2024-03-02T06:34:33;21.90;;;12.70;;
79493;SDS011;68951;53.130;18.104;2024-03-02T06:37:00;22.30;;;12.70;;
79493;SDS011;68951;53.130;18.104;2024-03-02T06:39:26;22.30;;;12.80;;
79493;SDS011;68951;53.130;18.104;2024-03-02T06:41:53;22.90;;;13.60;;
79493;SDS011;68951;53.130;18.104;2024-03-02T06:44:20;25.80;;;14.10;;
79493;SDS011;68951;53.130;18.104;2024-03-02T06:46:47;23.20;;;13.10;;
79493;SDS011;68951;53.130;18.104;2024-03-02T06:49:14;25.20;;;13.30;;
79493;SDS011;68951;53.130;18.104;2024-03-02T06:51:41;19.80;;;11.00;;
79493;SDS011;68951;53.130;18.104;2024-03-02T06:54:08;23.40;;;14.00;;
79493;SDS011;68951;53.130;18.104;2024-03-02T06:56:35;25.30;;;13.00;;
79493;SDS011;68951;53.130;18.104;2024-03-02T06:59:02;20.50;;;12.50;;
79493;SDS011;68951;53.130;18.104;2024-03-02T07:01:29;22.90;;;12.80;;
79493;SDS011;68951;53.130;18.104;2024-03-02T07:03:56;25.10;;;14.40;;
79493;SDS011;68951;53.130;18.104;2024-03-02T07:06:23;25.60;;;13.40;;
79493;SDS011;68951;53.130;18.104;2024-03-02T07:08:50;22.80;;;13.40;;
79493;SDS011;68951;53.130;18.104;2024-03-02T07:11:16;24.30;;;13.80;;
79493;SDS011;68951;53.130;18.104;2024-03-02T07:13:43;23.80;;;13.10;;
79493;SDS011;68951;53.130;18.104;2024-03-02T07:16:10;22.40;;;13.10;;
79493;SDS011;68951;53.130;18.104;2024-03-02T07:18:37;22.80;;;12.90;;
79493;SDS011;68951;53.130;18.104;2024-03-02T07:21:07;23.50;;;12.80;;
79493;SDS011;68951;53.130;18.104;2024-03-02T07:23:34;24.80;;;13.60;;
79493;SDS011;68951;53.130;18.104;2024-03-02T07:26:01;23.20;;;12.40;;
79493;SDS011;68951;53.130;18.104;2024-03-02T07:28:31;24.00;;;14.80;;
79493;SDS011;68951;53.130;18.104;2024-03-02T07:31:02;22.80;;;14.30;;
79493;SDS011;68951;53.130;18.104;2024-03-02T07:33:31;23.70;;;13.00;;
79493;SDS011;68951;53.130;18.104;2024-03-02T07:35:59;23.40;;;13.30;;
79493;SDS011;68951;53.130;18.104;2024-03-02T07:38:28;23.30;;;13.60;;
79493;SDS011;68951;53.130;18.104;2024-03-02T07:40:55;24.30;;;13.10;;
79493;SDS011;68951;53.130;18.104;2024-03-02T07:43:23;24.20;;;14.30;;
79493;SDS011;68951;53.130;18.104;2024-03-02T07:45:50;24.40;;;13.60;;
79493;SDS011;68951;53.130;18.104;2024-03-02T07:48:16;26.00;;;14.30;;
79493;SDS011;68951;53.130;18.104;2024-03-02T07:50:43;27.40;;;15.50;;
79493;SDS011;68951;53.130;18.104;2024-03-02T07:53:11;28.60;;;15.30;;
79493;SDS011;68951;53.130;18.104;2024-03-02T07:55:38;23.20;;;12.80;;
79493;SDS011;68951;53.130;18.104;2024-03-02T07:58:05;23.80;;;13.60;;
79493;SDS011;68951;53.130;18.104;2024-03-02T08:00:32;25.20;;;14.70;;
79493;SDS011;68951;53.130;18.104;2024-03-02T08:03:00;23.10;;;13.20;;
79493;SDS011;68951;53.130;18.104;2024-03-02T08:05:27;24.20;;;13.10;;
79493;SDS011;68951;53.130;18.104;2024-03-02T08:07:54;23.70;;;14.00;;
79493;SDS011;68951;53.130;18.104;2024-03-02T08:10:21;26.20;;;15.10;;
79493;SDS011;68951;53.130;18.104;2024-03-02T08:12:48;23.00;;;12.90;;
79493;SDS011;68951;53.130;18.104;2024-03-02T08:15:15;21.10;;;12.00;;
79493;SDS011;68951;53.130;18.104;2024-03-02T08:17:44;24.30;;;13.90;;
79493;SDS011;68951;53.130;18.104;2024-03-02T08:20:16;22.00;;;13.20;;
79493;SDS011;68951;53.130;18.104;2024-03-02T08:22:42;20.60;;;12.00;;
79493;SDS011;68951;53.130;18.104;2024-03-02T08:25:09;27.40;;;14.70;;
79493;SDS011;68951;53.130;18.104;2024-03-02T08:27:36;25.50;;;14.80;;
79493;SDS011;68951;53.130;18.104;2024-03-02T08:30:04;23.80;;;13.70;;
79493;SDS011;68951;53.130;18.104;2024-03-02T08:32:33;25.40;;;13.60;;
79493;SDS011;68951;53.130;18.104;2024-03-02T08:35:00;22.80;;;12.10;;
79493;SDS011;68951;53.130;18.104;2024-03-02T08:37:27;18.90;;;11.10;;
79493;SDS011;68951;53.130;18.104;2024-03-02T08:39:53;25.40;;;14.10;;
79493;SDS011;68951;53.130;18.104;2024-03-02T08:42:21;22.30;;;13.60;;
79493;SDS011;68951;53.130;18.104;2024-03-02T08:44:49;21.80;;;12.60;;
79493;SDS011;68951;53.130;18.104;2024-03-02T08:47:16;23.80;;;14.20;;
79493;SDS011;68951;53.130;18.104;2024-03-02T08:49:43;20.00;;;12.20;;
79493;SDS011;68951;53.130;18.104;2024-03-02T08:52:10;21.10;;;13.30;;
79493;SDS011;68951;53.130;18.104;2024-03-02T08:54:37;20.70;;;13.20;;
79493;SDS011;68951;53.130;18.104;2024-03-02T08:57:05;27.30;;;15.80;;
79493;SDS011;68951;53.130;18.104;2024-03-02T08:59:32;23.80;;;14.40;;
79493;SDS011;68951;53.130;18.104;2024-03-02T09:01:59;20.00;;;11.80;;
79493;SDS011;68951;53.130;18.104;2024-03-02T09:04:28;23.50;;;14.60;;
79493;SDS011;68951;53.130;18.104;2024-03-02T09:06:55;20.20;;;12.90;;
79493;SDS011;68951;53.130;18.104;2024-03-02T09:09:23;21.20;;;12.50;;
79493;SDS011;68951;53.130;18.104;2024-03-02T09:11:51;18.50;;;11.10;;
79493;SDS011;68951;53.130;18.104;2024-03-02T09:14:21;22.40;;;13.20;;
79493;SDS011;68951;53.130;18.104;2024-03-02T09:16:48;23.40;;;13.50;;
79493;SDS011;68951;53.130;18.104;2024-03-02T09:19:16;24.90;;;13.60;;
79493;SDS011;68951;53.130;18.104;2024-03-02T09:21:43;19.50;;;12.10;;
79493;SDS011;68951;53.130;18.104;2024-03-02T09:24:10;19.60;;;12.70;;
79493;SDS011;68951;53.130;18.104;2024-03-02T09:26:37;21.20;;;11.80;;
79493;SDS011;68951;53.130;18.104;2024-03-02T09:29:04;21.50;;;13.00;;
79493;SDS011;68951;53.130;18.104;2024-03-02T09:31:30;24.00;;;13.20;;
79493;SDS011;68951;53.130;18.104;2024-03-02T09:33:57;22.20;;;13.50;;
79493;SDS011;68951;53.130;18.104;2024-03-02T09:36:24;26.50;;;14.70;;
79493;SDS011;68951;53.130;18.104;2024-03-02T09:38:51;20.90;;;12.30;;
79493;SDS011;68951;53.130;18.104;2024-03-02T09:41:18;22.40;;;12.70;;
79493;SDS011;68951;53.130;18.104;2024-03-02T09:43:45;20.80;;;12.70;;
79493;SDS011;68951;53.130;18.104;2024-03-02T09:46:12;22.10;;;13.10;;
79493;SDS011;68951;53.130;18.104;2024-03-02T09:48:39;19.90;;;12.30;;
79493;SDS011;68951;53.130;18.104;2024-03-02T09:51:06;23.60;;;14.30;;
79493;SDS011;68951;53.130;18.104;2024-03-02T09:53:34;20.90;;;13.50;;
79493;SDS011;68951;53.130;18.104;2024-03-02T09:56:02;22.40;;;14.00;;
79493;SDS011;68951;53.130;18.104;2024-03-02T09:58:29;21.50;;;13.10;;
79493;SDS011;68951;53.130;18.104;2024-03-02T10:00:56;19.10;;;12.10;;
79493;SDS011;68951;53.130;18.104;2024-03-02T10:03:23;20.70;;;12.70;;
79493;SDS011;68951;53.130;18.104;2024-03-02T10:05:53;23.00;;;13.10;;
79493;SDS011;68951;53.130;18.104;2024-03-02T10:08:20;23.80;;;13.90;;
79493;SDS011;68951;53.130;18.104;2024-03-02T10:10:46;21.50;;;14.10;;
79493;SDS011;68951;53.130;18.104;2024-03-02T10:13:13;17.20;;;10.10;;
79493;SDS011;68951;53.130;18.104;2024-03-02T10:15:41;24.40;;;13.90;;
79493;SDS011;68951;53.130;18.104;2024-03-02T10:18:12;21.80;;;14.30;;
79493;SDS011;68951;53.130;18.104;2024-03-02T10:20:40;21.80;;;13.80;;
79493;SDS011;68951;53.130;18.104;2024-03-02T10:23:16;23.60;;;14.10;;
79493;SDS011;68951;53.130;18.104;2024-03-02T10:25:44;19.30;;;12.50;;
79493;SDS011;68951;53.130;18.104;2024-03-02T10:28:11;23.80;;;15.20;;
79493;SDS011;68951;53.130;18.104;2024-03-02T10:30:38;20.70;;;13.00;;
79493;SDS011;68951;53.130;18.104;2024-03-02T10:33:06;20.10;;;13.30;;
79493;SDS011;68951;53.130;18.104;2024-03-02T10:35:33;23.40;;;15.30;;
79493;SDS011;68951;53.130;18.104;2024-03-02T10:38:04;22.90;;;15.30;;
79493;SDS011;68951;53.130;18.104;2024-03-02T10:40:32;23.80;;;14.80;;
79493;SDS011;68951;53.130;18.104;2024-03-02T10:43:01;21.80;;;13.70;;
79493;SDS011;68951;53.130;18.104;2024-03-02T10:45:30;23.30;;;15.60;;
79493;SDS011;68951;53.130;18.104;2024-03-02T10:47:57;23.50;;;15.00;;
79493;SDS011;68951;53.130;18.104;2024-03-02T10:50:24;20.90;;;14.60;;
79493;SDS011;68951;53.130;18.104;2024-03-02T10:52:51;21.20;;;13.70;;
79493;SDS011;68951;53.130;18.104;2024-03-02T10:55:18;24.00;;;16.00;;
79493;SDS011;68951;53.130;18.104;2024-03-02T10:57:52;21.10;;;14.40;;
79493;SDS011;68951;53.130;18.104;2024-03-02T11:00:21;21.40;;;15.00;;
79493;SDS011;68951;53.130;18.104;2024-03-02T11:02:58;22.70;;;16.00;;
79493;SDS011;68951;53.130;18.104;2024-03-02T11:05:36;22.00;;;16.30;;
79493;SDS011;68951;53.130;18.104;2024-03-02T11:08:07;23.70;;;15.10;;
79493;SDS011;68951;53.130;18.104;2024-03-02T11:10:51;20.80;;;15.20;;
79493;SDS011;68951;53.130;18.104;2024-03-02T11:13:33;22.00;;;15.90;;
79493;SDS011;68951;53.130;18.104;2024-03-02T11:16:08;22.00;;;14.30;;
79493;SDS011;68951;53.130;18.104;2024-03-02T11:18:39;23.50;;;16.20;;
79493;SDS011;68951;53.130;18.104;2024-03-02T11:21:08;25.40;;;16.70;;
79493;SDS011;68951;53.130;18.104;2024-03-02T11:23:35;22.50;;;16.00;;
79493;SDS011;68951;53.130;18.104;2024-03-02T11:26:18;20.10;;;14.60;;
79493;SDS011;68951;53.130;18.104;2024-03-02T11:28:50;23.30;;;15.30;;
79493;SDS011;68951;53.130;18.104;2024-03-02T11:31:17;22.50;;;17.10;;
79493;SDS011;68951;53.130;18.104;2024-03-02T11:33:44;21.40;;;16.30;;
79493;SDS011;68951;53.130;18.104;2024-03-02T11:36:11;24.70;;;16.90;;
79493;SDS011;68951;53.130;18.104;2024-03-02T11:38:38;22.70;;;17.50;;
79493;SDS011;68951;53.130;18.104;2024-03-02T11:41:08;22.70;;;16.30;;
79493;SDS011;68951;53.130;18.104;2024-03-02T11:43:38;26.00;;;17.80;;
79493;SDS011;68951;53.130;18.104;2024-03-02T11:46:10;23.80;;;17.60;;
79493;SDS011;68951;53.130;18.104;2024-03-02T11:48:39;23.00;;;16.70;;
79493;SDS011;68951;53.130;18.104;2024-03-02T11:51:06;22.40;;;17.40;;
79493;SDS011;68951;53.130;18.104;2024-03-02T11:53:33;21.70;;;16.30;;
79493;SDS011;68951;53.130;18.104;2024-03-02T11:56:02;24.20;;;17.50;;
79493;SDS011;68951;53.130;18.104;2024-03-02T11:58:29;22.70;;;16.50;;
79493;SDS011;68951;53.130;18.104;2024-03-02T12:00:57;29.60;;;23.90;;
79493;SDS011;68951;53.130;18.104;2024-03-02T12:03:25;26.70;;;21.10;;
79493;SDS011;68951;53.130;18.104;2024-03-02T12:05:53;32.10;;;25.80;;
79493;SDS011;68951;53.130;18.104;2024-03-02T12:08:21;29.30;;;22.90;;
79493;SDS011;68951;53.130;18.104;2024-03-02T12:10:59;20.80;;;15.70;;
79493;SDS011;68951;53.130;18.104;2024-03-02T12:13:27;22.80;;;17.50;;
79493;SDS011;68951;53.130;18.104;2024-03-02T12:15:55;24.40;;;18.60;;
79493;SDS011;68951;53.130;18.104;2024-03-02T12:18:22;21.00;;;18.00;;
79493;SDS011;68951;53.130;18.104;2024-03-02T12:20:50;22.30;;;17.50;;
79493;SDS011;68951;53.130;18.104;2024-03-02T12:23:19;21.70;;;17.10;;
79493;SDS011;68951;53.130;18.104;2024-03-02T12:25:46;25.20;;;18.40;;
79493;SDS011;68951;53.130;18.104;2024-03-02T12:28:14;21.00;;;16.50;;
79493;SDS011;68951;53.130;18.104;2024-03-02T12:30:40;22.40;;;17.90;;
79493;SDS011;68951;53.130;18.104;2024-03-02T12:33:11;20.70;;;16.70;;
79493;SDS011;68951;53.130;18.104;2024-03-02T12:35:38;22.80;;;17.70;;
79493;SDS011;68951;53.130;18.104;2024-03-02T12:38:06;22.90;;;17.20;;
79493;SDS011;68951;53.130;18.104;2024-03-02T12:40:32;21.90;;;17.30;;
79493;SDS011;68951;53.130;18.104;2024-03-02T12:42:59;21.80;;;17.40;;
79493;SDS011;68951;53.130;18.104;2024-03-02T12:45:27;20.70;;;16.70;;
79493;SDS011;68951;53.130;18.104;2024-03-02T12:47:54;24.70;;;18.80;;
79493;SDS011;68951;53.130;18.104;2024-03-02T12:50:21;22.20;;;17.30;;
79493;SDS011;68951;53.130;18.104;2024-03-02T12:52:55;21.90;;;16.20;;
79493;SDS011;68951;53.130;18.104;2024-03-02T12:55:23;23.60;;;16.60;;
79493;SDS011;68951;53.130;18.104;2024-03-02T12:57:51;23.10;;;17.50;;
79493;SDS011;68951;53.130;18.104;2024-03-02T13:00:19;22.10;;;16.90;;
79493;SDS011;68951;53.130;18.104;2024-03-02T13:02:48;23.20;;;17.20;;
79493;SDS011;68951;53.130;18.104;2024-03-02T13:05:17;21.50;;;15.90;;
79493;SDS011;68951;53.130;18.104;2024-03-02T13:07:44;24.50;;;17.60;;
79493;SDS011;68951;53.130;18.104;2024-03-02T13:10:13;22.10;;;16.60;;
79493;SDS011;68951;53.130;18.104;2024-03-02T13:12:40;25.60;;;17.90;;
79493;SDS011;68951;53.130;18.104;2024-03-02T13:15:08;26.10;;;17.20;;
79493;SDS011;68951;53.130;18.104;2024-03-02T13:17:35;25.80;;;17.70;;
79493;SDS011;68951;53.130;18.104;2024-03-02T13:20:03;29.70;;;19.60;;
79493;SDS011;68951;53.130;18.104;2024-03-02T13:22:36;25.70;;;18.60;;
79493;SDS011;68951;53.130;18.104;2024-03-02T13:25:04;25.70;;;18.30;;
79493;SDS011;68951;53.130;18.104;2024-03-02T13:27:32;26.20;;;18.00;;
79493;SDS011;68951;53.130;18.104;2024-03-02T13:29:59;26.00;;;18.30;;
79493;SDS011;68951;53.130;18.104;2024-03-02T13:32:28;27.60;;;18.90;;
79493;SDS011;68951;53.130;18.104;2024-03-02T13:34:55;26.20;;;18.60;;
79493;SDS011;68951;53.130;18.104;2024-03-02T13:37:21;33.10;;;21.60;;
79493;SDS011;68951;53.130;18.104;2024-03-02T13:39:49;33.80;;;22.50;;
79493;SDS011;68951;53.130;18.104;2024-03-02T13:42:16;34.60;;;23.30;;
79493;SDS011;68951;53.130;18.104;2024-03-02T13:44:43;31.40;;;22.30;;
79493;SDS011;68951;53.130;18.104;2024-03-02T13:47:13;34.80;;;22.60;;
79493;SDS011;68951;53.130;18.104;2024-03-02T13:49:41;35.00;;;22.40;;
79493;SDS011;68951;53.130;18.104;2024-03-02T13:52:12;39.80;;;26.30;;
79493;SDS011;68951;53.130;18.104;2024-03-02T13:54:44;35.40;;;23.80;;
79493;SDS011;68951;53.130;18.104;2024-03-02T13:57:12;34.70;;;22.60;;
79493;SDS011;68951;53.130;18.104;2024-03-02T13:59:41;34.30;;;22.60;;
79493;SDS011;68951;53.130;18.104;2024-03-02T14:02:09;35.20;;;23.50;;
79493;SDS011;68951;53.130;18.104;2024-03-02T14:04:36;32.70;;;20.20;;
79493;SDS011;68951;53.130;18.104;2024-03-02T14:07:04;41.10;;;27.30;;
79493;SDS011;68951;53.130;18.104;2024-03-02T14:09:34;36.10;;;22.90;;
79493;SDS011;68951;53.130;18.104;2024-03-02T14:12:02;37.40;;;24.30;;
79493;SDS011;68951;53.130;18.104;2024-03-02T14:14:29;41.50;;;26.20;;
79493;SDS011;68951;53.130;18.104;2024-03-02T14:16:56;30.60;;;20.00;;
79493;SDS011;68951;53.130;18.104;2024-03-02T14:19:26;35.40;;;23.10;;
79493;SDS011;68951;53.130;18.104;2024-03-02T14:21:53;31.70;;;20.10;;